Time;durP1;ratioP1;P1;durP2;ratioP2;P2;SDS_P1;SDS_P2;PMS_P1;PMS_P2;Temp;Humidity;BMP_temperature;BMP_pressure;BME280_temperature;BME280_humidity;BME280_pressure;Samples;Min_cycle;Max_cycle;Signal;HPM_P1;HPM_P2
2022/07/16 00:02:42;;;;;;;0.17;0.10;;;13.60;99.90;;;;;;5028423;28;20057;-75
2022/07/16 00:05:07;;;;;;;0.25;0.17;;;13.50;99.90;;;;;;5031284;28;20125;-75
2022/07/16 00:07:33;;;;;;;0.20;0.20;;;13.50;99.90;;;;;;5015402;28;20049;-75
2022/07/16 00:09:59;;;;;;;0.00;0.00;;;13.50;99.90;;;;;;5015517;28;20085;-74
2022/07/16 00:12:25;;;;;;;0.00;0.00;;;13.50;99.90;;;;;;5015454;28;20056;-75
2022/07/16 00:14:51;;;;;;;0.43;0.20;;;13.50;99.90;;;;;;5015254;28;20037;-74
2022/07/16 00:17:18;;;;;;;0.00;0.00;;;13.70;99.90;;;;;;5015228;28;20408;-75
2022/07/16 00:19:43;;;;;;;0.20;0.20;;;13.80;99.90;;;;;;5015044;28;20084;-75
2022/07/16 00:22:09;;;;;;;0.00;0.00;;;14.00;99.90;;;;;;5015222;28;20042;-74
2022/07/16 00:24:35;;;;;;;0.65;0.43;;;14.20;99.90;;;;;;5015243;28;20050;-75
2022/07/16 00:27:01;;;;;;;0.68;0.30;;;14.30;99.90;;;;;;5032861;28;20038;-75
2022/07/16 00:29:26;;;;;;;0.35;0.28;;;14.50;99.90;;;;;;5034853;28;20077;-75
2022/07/16 00:31:54;;;;;;;0.00;0.00;;;14.60;99.90;;;;;;5034540;28;20090;-75
2022/07/16 00:34:20;;;;;;;0.85;0.35;;;14.70;99.90;;;;;;5034356;28;20083;-76
2022/07/16 00:36:46;;;;;;;0.60;0.30;;;14.80;99.90;;;;;;5034498;28;20049;-75
2022/07/16 00:39:12;;;;;;;0.85;0.22;;;14.80;99.90;;;;;;5034611;28;20072;-75
2022/07/16 00:41:39;;;;;;;0.63;0.20;;;14.90;99.90;;;;;;5034334;28;20041;-75
2022/07/16 00:44:07;;;;;;;0.13;0.13;;;15.00;99.90;;;;;;5034604;28;20139;-75
2022/07/16 00:46:34;;;;;;;0.03;0.03;;;15.00;99.90;;;;;;5033698;28;20051;-75
2022/07/16 00:49:00;;;;;;;0.03;0.03;;;15.10;99.90;;;;;;5033936;28;20168;-75
2022/07/16 00:51:27;;;;;;;0.10;0.10;;;15.10;99.90;;;;;;5034740;28;20554;-75
2022/07/16 00:53:53;;;;;;;0.38;0.30;;;15.10;99.90;;;;;;5034414;28;20037;-75
2022/07/16 00:56:20;;;;;;;0.10;0.10;;;15.10;99.90;;;;;;5019801;28;20053;-75
2022/07/16 00:58:47;;;;;;;0.13;0.13;;;15.20;99.90;;;;;;5014390;28;20053;-75
2022/07/16 01:01:14;;;;;;;0.20;0.20;;;15.10;99.90;;;;;;5022577;28;20088;-75
2022/07/16 01:03:42;;;;;;;0.00;0.00;;;14.90;99.90;;;;;;5034050;28;20112;-75
2022/07/16 01:06:10;;;;;;;0.03;0.03;;;14.80;99.90;;;;;;5033940;28;20049;-74
2022/07/16 01:08:38;;;;;;;0.00;0.00;;;14.70;99.90;;;;;;5034159;28;20042;-74
2022/07/16 01:11:06;;;;;;;0.10;0.10;;;14.80;99.90;;;;;;5034146;28;20089;-74
2022/07/16 01:13:33;;;;;;;0.00;0.00;;;14.50;99.90;;;;;;5034136;28;20041;-74
2022/07/16 01:15:59;;;;;;;0.30;0.30;;;14.50;99.90;;;;;;5033563;28;20076;-75
2022/07/16 01:18:25;;;;;;;1.27;0.43;;;14.40;99.90;;;;;;5033939;28;20194;-75
2022/07/16 01:20:50;;;;;;;1.50;0.22;;;14.40;99.90;;;;;;5033638;28;20420;-74
2022/07/16 01:23:19;;;;;;;1.10;0.45;;;14.40;99.90;;;;;;5033427;28;20503;-75
2022/07/16 01:25:45;;;;;;;0.00;0.00;;;14.30;99.90;;;;;;5030816;28;20080;-75
2022/07/16 01:28:10;;;;;;;0.22;0.20;;;14.30;99.90;;;;;;5033704;28;20430;-74
2022/07/16 01:30:36;;;;;;;0.10;0.00;;;14.30;99.90;;;;;;5033589;28;20094;-75
2022/07/16 01:33:28;;;;;;;6.70;0.90;;;14.30;99.90;;;;;;5033727;28;20038;-75
2022/07/16 01:36:00;;;;;;;0.00;0.00;;;14.30;99.90;;;;;;5021834;28;20555;-76
2022/07/16 01:38:26;;;;;;;0.10;0.10;;;14.20;99.90;;;;;;5013554;28;20053;-75
2022/07/16 01:40:52;;;;;;;0.00;0.00;;;14.20;99.90;;;;;;5013758;28;20045;-75
2022/07/16 01:43:20;;;;;;;0.00;0.00;;;14.20;99.90;;;;;;5013630;28;20045;-75
2022/07/16 01:45:46;;;;;;;0.80;0.55;;;14.20;99.90;;;;;;5023917;28;20080;-75
2022/07/16 01:48:12;;;;;;;0.00;0.00;;;14.10;99.90;;;;;;5033280;28;20073;-74
2022/07/16 01:50:39;;;;;;;0.00;0.00;;;14.10;99.90;;;;;;5033314;28;20389;-75
2022/07/16 01:53:05;;;;;;;0.47;0.38;;;14.10;99.90;;;;;;5031800;28;20084;-74
2022/07/16 01:55:31;;;;;;;0.15;0.08;;;14.10;99.90;;;;;;5026671;28;20038;-74
2022/07/16 01:57:56;;;;;;;0.35;0.28;;;14.20;99.90;;;;;;5013734;28;20143;-74
2022/07/16 02:00:22;;;;;;;0.00;0.00;;;14.20;99.90;;;;;;5012652;28;20492;-75
2022/07/16 02:02:48;;;;;;;0.00;0.00;;;14.10;99.90;;;;;;5013319;28;20041;-75
2022/07/16 02:05:13;;;;;;;0.00;0.00;;;14.10;99.90;;;;;;5025294;28;20045;-75
2022/07/16 02:07:39;;;;;;;1.17;0.47;;;14.10;99.90;;;;;;5013271;28;20042;-74
2022/07/16 02:10:05;;;;;;;0.00;0.00;;;14.10;99.90;;;;;;5013258;28;20134;-75
2022/07/16 02:12:31;;;;;;;0.00;0.00;;;14.00;99.90;;;;;;5013145;28;20112;-75
2022/07/16 02:14:57;;;;;;;0.20;0.20;;;14.00;99.90;;;;;;5013255;28;20392;-75
2022/07/16 02:17:23;;;;;;;0.00;0.00;;;14.00;99.90;;;;;;5013156;28;20125;-75
2022/07/16 02:19:48;;;;;;;1.23;0.20;;;14.00;99.90;;;;;;5013109;28;20037;-75
2022/07/16 02:22:15;;;;;;;0.10;0.10;;;14.00;99.90;;;;;;5012899;28;20161;-75
2022/07/16 02:24:41;;;;;;;0.15;0.15;;;14.00;99.90;;;;;;5013104;28;20041;-76
2022/07/16 02:27:06;;;;;;;0.00;0.00;;;14.00;99.90;;;;;;5032487;28;20566;-75
2022/07/16 02:29:32;;;;;;;0.00;0.00;;;14.00;99.90;;;;;;5032424;28;20435;-75
2022/07/16 02:31:57;;;;;;;0.00;0.00;;;13.90;99.90;;;;;;5017422;28;20033;-74
2022/07/16 02:34:23;;;;;;;0.63;0.63;;;13.80;99.90;;;;;;5012852;28;20046;-74
2022/07/16 02:36:49;;;;;;;0.32;0.32;;;13.70;99.90;;;;;;5029894;28;20053;-75
2022/07/16 02:39:14;;;;;;;0.00;0.00;;;13.70;99.90;;;;;;5032454;28;20506;-74
2022/07/16 02:41:40;;;;;;;0.00;0.00;;;13.60;99.90;;;;;;5032405;28;20118;-75
2022/07/16 02:44:05;;;;;;;0.00;0.00;;;13.50;99.90;;;;;;5032658;28;20045;-74
2022/07/16 02:46:31;;;;;;;0.08;0.00;;;13.50;99.90;;;;;;5017829;28;20611;-75
2022/07/16 02:48:57;;;;;;;0.10;0.10;;;13.50;99.90;;;;;;5012496;28;20048;-75
2022/07/16 02:51:22;;;;;;;0.00;0.00;;;13.50;99.90;;;;;;5012718;28;20041;-74
2022/07/16 02:53:48;;;;;;;0.00;0.00;;;13.50;99.90;;;;;;5012552;28;20455;-75
2022/07/16 02:56:13;;;;;;;0.30;0.15;;;13.60;99.90;;;;;;5012675;28;20057;-75
2022/07/16 02:58:39;;;;;;;0.10;0.05;;;13.50;99.90;;;;;;5012612;28;20540;-74
2022/07/16 03:01:05;;;;;;;0.65;0.38;;;13.50;99.90;;;;;;5012730;28;20052;-75
2022/07/16 03:03:30;;;;;;;0.00;0.00;;;13.40;99.90;;;;;;5012237;28;20049;-74
2022/07/16 03:05:56;;;;;;;0.15;0.15;;;13.30;99.90;;;;;;5021656;28;20046;-75
2022/07/16 03:08:21;;;;;;;0.00;0.00;;;13.40;99.90;;;;;;5031813;28;20084;-75
2022/07/16 03:10:47;;;;;;;0.30;0.30;;;13.30;99.90;;;;;;5031907;28;20038;-75
2022/07/16 03:13:13;;;;;;;0.00;0.00;;;13.20;99.90;;;;;;5036451;28;20045;-75
2022/07/16 03:15:38;;;;;;;0.00;0.00;;;13.20;99.90;;;;;;5029492;28;20046;-74
2022/07/16 03:18:04;;;;;;;0.00;0.00;;;13.10;99.90;;;;;;5015191;28;20052;-74
2022/07/16 03:20:29;;;;;;;0.00;0.00;;;13.10;99.90;;;;;;5016549;28;20042;-75
2022/07/16 03:22:55;;;;;;;0.38;0.30;;;12.90;99.90;;;;;;5016255;28;20412;-74
2022/07/16 03:25:21;;;;;;;0.00;0.00;;;12.90;99.90;;;;;;5016535;28;20041;-75
2022/07/16 03:27:46;;;;;;;0.40;0.20;;;12.80;99.90;;;;;;5016320;28;20069;-75
2022/07/16 03:30:14;;;;;;;0.00;0.00;;;12.80;99.90;;;;;;5029387;28;20515;-75
2022/07/16 03:32:39;;;;;;;0.00;0.00;;;12.70;99.90;;;;;;5035917;28;20045;-75
2022/07/16 03:35:06;;;;;;;0.55;0.55;;;12.60;99.90;;;;;;5033894;28;20044;-75
2022/07/16 03:37:32;;;;;;;0.20;0.20;;;12.60;99.90;;;;;;5015977;28;20404;-75
2022/07/16 03:39:59;;;;;;;0.00;0.00;;;12.60;99.90;;;;;;5015834;28;20096;-74
2022/07/16 03:42:25;;;;;;;0.00;0.00;;;12.50;99.90;;;;;;5016131;28;20052;-74
2022/07/16 03:44:50;;;;;;;0.00;0.00;;;12.40;99.90;;;;;;5014900;28;20501;-76
2022/07/16 03:47:16;;;;;;;0.35;0.20;;;12.40;99.90;;;;;;5034756;28;20124;-75
2022/07/16 03:49:42;;;;;;;0.08;0.08;;;12.30;99.90;;;;;;5035618;28;20037;-74
2022/07/16 03:52:07;;;;;;;0.00;0.00;;;12.30;99.90;;;;;;5035601;28;20447;-74
2022/07/16 03:54:33;;;;;;;0.00;0.00;;;12.20;99.90;;;;;;5035409;28;20045;-75
2022/07/16 03:56:58;;;;;;;0.20;0.10;;;12.30;99.90;;;;;;5034483;28;20129;-74
2022/07/16 03:59:24;;;;;;;0.00;0.00;;;12.30;99.90;;;;;;5035476;28;20053;-74
2022/07/16 04:01:50;;;;;;;0.00;0.00;;;12.30;99.90;;;;;;5035277;28;20079;-75
2022/07/16 04:04:15;;;;;;;0.00;0.00;;;12.40;99.90;;;;;;5034970;28;20081;-75
2022/07/16 04:06:41;;;;;;;0.00;0.00;;;12.40;99.90;;;;;;5020876;28;20084;-75
2022/07/16 04:09:06;;;;;;;0.00;0.00;;;12.70;99.90;;;;;;5015271;28;20054;-74
2022/07/16 04:11:32;;;;;;;0.63;0.52;;;12.80;99.90;;;;;;5015597;28;20045;-74
2022/07/16 04:13:58;;;;;;;0.15;0.15;;;12.70;99.90;;;;;;5015536;28;20400;-74
2022/07/16 04:16:23;;;;;;;1.65;0.15;;;12.70;99.90;;;;;;5015706;28;20038;-75
2022/07/16 04:18:49;;;;;;;0.00;0.00;;;12.60;99.90;;;;;;5015366;28;20046;-74
2022/07/16 04:21:14;;;;;;;0.00;0.00;;;12.60;99.90;;;;;;5015321;28;20042;-75
2022/07/16 04:23:40;;;;;;;0.28;0.22;;;12.60;99.90;;;;;;5014334;28;20037;-74
2022/07/16 04:26:06;;;;;;;0.00;0.00;;;12.50;99.90;;;;;;5023590;28;20443;-75
2022/07/16 04:28:32;;;;;;;0.20;0.20;;;12.50;99.90;;;;;;5035083;28;20045;-74
2022/07/16 04:30:57;;;;;;;0.10;0.10;;;12.50;99.90;;;;;;5035010;28;20046;-75
2022/07/16 04:33:23;;;;;;;0.00;0.00;;;12.50;99.90;;;;;;5034621;28;20048;-76
2022/07/16 04:35:49;;;;;;;0.00;0.00;;;12.50;99.90;;;;;;5008613;28;20084;-74
2022/07/16 04:38:16;;;;;;;0.00;0.00;;;12.60;99.90;;;;;;5034592;28;20041;-75
2022/07/16 04:40:41;;;;;;;0.15;0.03;;;12.60;99.90;;;;;;5034856;28;20038;-74
2022/07/16 04:43:07;;;;;;;0.22;0.22;;;12.60;99.90;;;;;;5034781;28;20044;-75
2022/07/16 04:45:33;;;;;;;0.00;0.00;;;12.70;99.90;;;;;;5030520;28;20454;-74
2022/07/16 04:47:58;;;;;;;0.00;0.00;;;12.80;99.90;;;;;;5014939;28;20050;-75
2022/07/16 04:50:24;;;;;;;0.00;0.00;;;12.90;99.90;;;;;;5014799;28;20042;-74
2022/07/16 04:52:49;;;;;;;0.03;0.03;;;12.90;99.90;;;;;;5014445;28;20046;-75
2022/07/16 04:55:15;;;;;;;0.10;0.10;;;13.00;99.90;;;;;;5014935;28;20391;-76
2022/07/16 04:57:41;;;;;;;0.00;0.00;;;13.10;99.90;;;;;;5014371;28;20049;-75
2022/07/16 05:00:07;;;;;;;0.03;0.03;;;13.10;99.90;;;;;;5032682;28;20056;-75
2022/07/16 05:05:20;;;;;;;0.17;0.17;;;13.70;99.90;;;;;;5033943;28;20132;-74
2022/07/16 05:07:47;;;;;;;0.00;0.00;;;13.80;99.90;;;;;;5034478;28;20151;-74
2022/07/16 05:10:12;;;;;;;0.10;0.10;;;14.10;99.90;;;;;;5034043;28;20467;-74
2022/07/16 05:12:38;;;;;;;0.10;0.10;;;14.70;99.90;;;;;;5033982;28;20116;-75
2022/07/16 05:15:04;;;;;;;0.00;0.00;;;15.50;99.90;;;;;;5031641;28;20052;-75
2022/07/16 05:17:29;;;;;;;0.00;0.00;;;15.60;99.90;;;;;;5014085;28;20042;-75
2022/07/16 05:19:55;;;;;;;0.20;0.08;;;15.40;99.90;;;;;;5014025;28;20045;-75
2022/07/16 05:22:20;;;;;;;0.10;0.10;;;15.20;99.90;;;;;;5014164;28;20066;-75
2022/07/16 05:24:46;;;;;;;0.82;0.45;;;15.10;99.90;;;;;;5014475;28;20550;-76
2022/07/16 05:27:11;;;;;;;0.03;0.03;;;15.30;99.90;;;;;;5014044;28;20044;-76
2022/07/16 05:29:37;;;;;;;0.00;0.00;;;15.60;99.90;;;;;;5014200;28;20057;-75
2022/07/16 05:32:03;;;;;;;0.28;0.20;;;16.10;99.90;;;;;;5013047;28;20401;-76
2022/07/16 05:34:28;;;;;;;0.00;0.00;;;16.80;99.90;;;;;;5013021;28;20077;-76
2022/07/16 05:36:57;;;;;;;0.25;0.20;;;17.40;99.90;;;;;;5032024;28;20499;-76
2022/07/16 05:39:24;;;;;;;0.20;0.20;;;17.90;99.90;;;;;;5033613;28;20080;-75
2022/07/16 05:41:50;;;;;;;0.00;0.00;;;18.60;99.90;;;;;;5033694;28;20392;-76
2022/07/16 05:44:15;;;;;;;5.38;0.68;;;18.90;99.90;;;;;;5033399;28;20045;-76
2022/07/16 05:46:41;;;;;;;0.10;0.10;;;19.10;99.90;;;;;;5032639;28;20118;-76
2022/07/16 05:49:06;;;;;;;0.30;0.30;;;19.00;99.90;;;;;;5030280;28;20499;-76
2022/07/16 05:51:32;;;;;;;0.00;0.00;;;18.30;99.90;;;;;;5030608;28;20489;-76
2022/07/16 05:53:57;;;;;;;0.00;0.00;;;18.40;99.90;;;;;;5030395;28;20042;-76
2022/07/16 05:56:23;;;;;;;0.00;0.00;;;18.50;99.90;;;;;;5017938;28;20053;-75
2022/07/16 05:58:48;;;;;;;0.00;0.00;;;19.20;99.90;;;;;;5010400;28;20150;-76
2022/07/16 06:01:14;;;;;;;0.15;0.15;;;19.20;99.90;;;;;;5010396;28;20045;-77
2022/07/16 06:03:40;;;;;;;0.00;0.00;;;19.60;99.90;;;;;;5013467;28;20037;-75
2022/07/16 06:06:05;;;;;;;1.20;0.43;;;19.10;99.90;;;;;;5020785;28;20421;-77
2022/07/16 06:08:31;;;;;;;0.35;0.30;;;19.20;99.90;;;;;;5010536;28;20053;-76
2022/07/16 06:10:58;;;;;;;0.80;0.47;;;19.10;99.90;;;;;;5010451;28;20524;-77
2022/07/16 06:13:24;;;;;;;0.05;0.05;;;19.60;99.90;;;;;;5010234;28;20434;-76
2022/07/16 06:15:49;;;;;;;0.00;0.00;;;19.50;99.90;;;;;;5016999;28;20044;-76
2022/07/16 06:18:15;;;;;;;0.35;0.28;;;19.30;99.30;;;;;;5029784;28;20112;-75
2022/07/16 06:20:40;;;;;;;0.00;0.00;;;18.80;99.90;;;;;;5029911;28;20403;-75
2022/07/16 06:23:06;;;;;;;0.00;0.00;;;18.90;99.90;;;;;;5029876;28;20037;-76
2022/07/16 06:25:32;;;;;;;0.03;0.03;;;19.20;97.20;;;;;;5029341;28;20041;-76
2022/07/16 06:27:58;;;;;;;0.65;0.57;;;19.60;95.80;;;;;;5029727;28;20049;-76
2022/07/16 06:30:23;;;;;;;0.08;0.08;;;19.80;91.10;;;;;;5029719;28;20128;-77
2022/07/16 06:32:49;;;;;;;17.25;1.35;;;19.50;84.10;;;;;;5030392;28;20045;-77
2022/07/16 06:35:14;;;;;;;0.30;0.17;;;19.90;84.30;;;;;;5025896;28;20424;-77
2022/07/16 06:37:40;;;;;;;1.98;0.32;;;19.70;70.50;;;;;;5016887;28;20048;-76
2022/07/16 06:40:06;;;;;;;0.15;0.13;;;19.80;65.00;;;;;;5031208;28;20734;-76
2022/07/16 06:42:32;;;;;;;0.28;0.28;;;19.60;73.00;;;;;;5020290;28;20103;-75
2022/07/16 06:44:58;;;;;;;0.00;0.00;;;20.80;67.90;;;;;;5012890;28;20052;-76
2022/07/16 06:47:24;;;;;;;0.20;0.15;;;21.30;57.50;;;;;;5011578;28;20504;-77
2022/07/16 06:49:50;;;;;;;0.25;0.20;;;20.70;53.50;;;;;;5010597;28;20104;-76
2022/07/16 06:52:16;;;;;;;0.00;0.00;;;20.60;56.30;;;;;;5008089;28;20408;-76
2022/07/16 06:54:42;;;;;;;1.27;0.73;;;20.60;42.60;;;;;;5008400;28;20052;-76
2022/07/16 06:57:07;;;;;;;0.00;0.00;;;20.60;41.10;;;;;;5009370;28;20101;-75
2022/07/16 06:59:33;;;;;;;3.85;0.98;;;21.10;45.70;;;;;;5009238;28;20485;-76
2022/07/16 07:01:58;;;;;;;0.65;0.13;;;21.90;32.50;;;;;;5009078;28;20104;-76
2022/07/16 07:04:24;;;;;;;0.63;0.43;;;22.00;23.20;;;;;;5010546;28;20041;-76
2022/07/16 07:06:50;;;;;;;0.45;0.38;;;21.90;22.30;;;;;;5010565;28;20052;-77
2022/07/16 07:09:15;;;;;;;0.70;0.30;;;20.80;19.90;;;;;;5017915;28;20078;-75
2022/07/16 07:11:42;;;;;;;0.00;0.00;;;21.20;25.00;;;;;;5010375;28;20483;-76
2022/07/16 07:14:08;;;;;;;0.52;0.47;;;20.40;30.00;;;;;;5027941;28;20061;-75
2022/07/16 07:16:34;;;;;;;0.00;0.00;;;19.40;42.70;;;;;;5015030;28;20048;-76
2022/07/16 07:19:00;;;;;;;0.00;0.00;;;18.50;57.90;;;;;;5009515;28;20042;-76
2022/07/16 07:21:26;;;;;;;0.00;0.00;;;18.00;65.50;;;;;;5008151;28;20366;-75
2022/07/16 07:23:52;;;;;;;0.10;0.00;;;17.10;80.30;;;;;;5024556;28;20049;-75
2022/07/16 07:26:17;;;;;;;0.00;0.00;;;16.60;92.20;;;;;;5017104;28;20112;-75
2022/07/16 07:28:43;;;;;;;0.00;0.00;;;16.40;93.80;;;;;;5009156;28;20042;-76
2022/07/16 07:31:09;;;;;;;0.00;0.00;;;16.40;94.20;;;;;;5009153;28;20038;-75
2022/07/16 07:33:36;;;;;;;0.00;0.00;;;16.50;92.90;;;;;;5020177;28;20204;-75
2022/07/16 07:36:02;;;;;;;0.00;0.00;;;17.10;90.60;;;;;;5018814;28;20265;-76
2022/07/16 07:38:28;;;;;;;0.25;0.22;;;18.30;75.40;;;;;;5008954;28;20552;-76
2022/07/16 07:40:54;;;;;;;1.48;0.95;;;19.90;67.90;;;;;;5023487;28;20256;-76
2022/07/16 07:43:19;;;;;;;0.57;0.15;;;20.80;23.10;;;;;;5028627;28;20452;-75
2022/07/16 07:45:45;;;;;;;0.00;0.00;;;20.90;15.90;;;;;;5030086;28;20044;-76
2022/07/16 07:48:10;;;;;;;0.20;0.20;;;21.30;12.50;;;;;;5031774;28;20046;-75
2022/07/16 07:50:36;;;;;;;0.00;0.00;;;21.70;11.20;;;;;;5031926;28;20038;-75
2022/07/16 07:53:02;;;;;;;5.72;0.43;;;22.20;9.40;;;;;;5031335;28;20042;-76
2022/07/16 07:55:28;;;;;;;0.00;0.00;;;22.90;1.90;;;;;;5028882;28;20396;-76
2022/07/16 07:57:54;;;;;;;0.00;0.00;;;23.70;1.00;;;;;;5030588;28;20048;-74
2022/07/16 08:00:19;;;;;;;0.00;0.00;;;23.50;1.00;;;;;;5035467;28;20049;-75
2022/07/16 08:02:46;;;;;;;0.00;0.00;;;23.50;1.00;;;;;;5032742;28;20041;-76
2022/07/16 08:05:12;;;;;;;0.00;0.00;;;22.00;1.00;;;;;;5017869;28;20037;-75
2022/07/16 08:07:39;;;;;;;0.55;0.30;;;21.50;1.70;;;;;;5035121;28;20049;-75
2022/07/16 08:10:05;;;;;;;2.53;0.40;;;21.10;2.80;;;;;;5035661;28;20551;-75
2022/07/16 08:12:30;;;;;;;0.00;0.00;;;20.60;2.90;;;;;;5029996;28;20041;-75
2022/07/16 08:14:56;;;;;;;3.55;0.65;;;20.60;7.50;;;;;;5015527;28;20034;-75
2022/07/16 08:17:22;;;;;;;0.52;0.38;;;21.70;4.40;;;;;;5035513;28;20053;-75
2022/07/16 08:19:47;;;;;;;0.10;0.10;;;22.30;1.00;;;;;;5035389;28;20041;-75
2022/07/16 08:22:13;;;;;;;0.00;0.00;;;22.40;1.00;;;;;;5034983;28;20045;-75
2022/07/16 08:27:22;;;;;;;0.00;0.00;;;21.70;1.00;;;;;;5015176;28;20053;-76
2022/07/16 08:29:48;;;;;;;0.00;0.00;;;20.70;5.70;;;;;;5015011;28;20052;-76
2022/07/16 08:32:13;;;;;;;0.00;0.00;;;20.50;10.50;;;;;;5016210;28;20041;-75
2022/07/16 08:34:39;;;;;;;0.10;0.10;;;20.50;13.50;;;;;;5014951;28;20034;-75
2022/07/16 08:37:07;;;;;;;1.83;0.60;;;20.10;17.40;;;;;;5015082;28;20034;-75
2022/07/16 08:39:33;;;;;;;0.00;0.00;;;20.10;19.50;;;;;;5015151;28;20050;-75
2022/07/16 08:41:59;;;;;;;0.77;0.32;;;20.20;22.80;;;;;;5015205;28;20034;-76
2022/07/16 08:44:26;;;;;;;0.00;0.00;;;21.50;17.50;;;;;;4995737;28;20096;-75
2022/07/16 08:46:51;;;;;;;4.30;1.02;;;22.00;10.30;;;;;;4995585;28;20053;-75
2022/07/16 08:49:19;;;;;;;0.15;0.05;;;22.20;8.30;;;;;;4995654;28;20046;-75
2022/07/16 08:51:45;;;;;;;0.00;0.00;;;22.10;10.80;;;;;;4994156;28;20486;-75
2022/07/16 08:54:19;;;;;;;0.90;0.73;;;22.00;10.10;;;;;;5031046;28;20084;-75
2022/07/16 08:56:45;;;;;;;0.35;0.20;;;22.20;9.40;;;;;;5034465;28;20053;-74
2022/07/16 08:59:10;;;;;;;0.00;0.00;;;23.00;9.60;;;;;;5034722;28;20124;-76
2022/07/16 09:01:36;;;;;;;0.38;0.22;;;22.50;5.50;;;;;;5034470;28;20124;-75
2022/07/16 09:04:03;;;;;;;0.08;0.08;;;21.80;9.00;;;;;;5017591;28;20045;-75
2022/07/16 09:06:30;;;;;;;0.65;0.20;;;21.90;12.10;;;;;;5014351;28;20128;-75
2022/07/16 09:08:56;;;;;;;1.45;0.77;;;21.10;14.30;;;;;;5013883;28;20069;-75
2022/07/16 09:11:25;;;;;;;0.32;0.32;;;20.50;24.20;;;;;;5014276;28;20042;-75
2022/07/16 09:14:06;;;;;;;1.35;0.52;;;19.30;36.40;;;;;;5027749;28;20131;-75
2022/07/16 09:16:35;;;;;;;0.10;0.10;;;19.30;42.60;;;;;;5034145;28;20037;-76
2022/07/16 09:19:11;;;;;;;0.28;0.15;;;19.30;45.90;;;;;;5033747;28;20053;-75
2022/07/16 09:22:00;;;;;;;0.30;0.17;;;19.10;42.50;;;;;;5033740;28;20116;-75
2022/07/16 09:24:46;;;;;;;0.00;0.00;;;18.40;49.90;;;;;;5033591;28;20385;-75
2022/07/16 09:27:14;;;;;;;0.08;0.08;;;18.80;45.20;;;;;;5033752;28;20453;-75
2022/07/16 09:29:46;;;;;;;0.05;0.05;;;20.40;31.50;;;;;;5033709;28;20046;-74
2022/07/16 09:32:13;;;;;;;0.00;0.00;;;21.70;18.20;;;;;;5033708;28;20068;-75
2022/07/16 09:34:39;;;;;;;0.20;0.20;;;23.00;12.10;;;;;;5015776;28;20117;-75
2022/07/16 09:37:06;;;;;;;0.00;0.00;;;23.10;2.40;;;;;;5013936;28;20050;-75
2022/07/16 09:39:33;;;;;;;0.00;0.00;;;23.60;1.00;;;;;;5013629;28;20081;-75
2022/07/16 09:42:00;;;;;;;4.68;0.85;;;23.60;1.00;;;;;;5013830;28;20129;-75
2022/07/16 09:44:33;;;;;;;0.77;0.28;;;21.80;1.00;;;;;;5030113;28;20041;-75
2022/07/16 09:47:06;;;;;;;0.10;0.10;;;21.90;2.60;;;;;;5033597;28;20053;-75
2022/07/16 09:49:36;;;;;;;0.55;0.38;;;22.30;1.00;;;;;;5033072;28;20041;-75
2022/07/16 09:52:32;;;;;;;0.65;0.43;;;22.50;1.00;;;;;;5033417;28;20476;-75
2022/07/16 09:54:59;;;;;;;0.00;0.00;;;23.00;1.00;;;;;;4993892;28;20521;-75
2022/07/16 09:57:28;;;;;;;0.00;0.00;;;23.80;1.00;;;;;;4993894;28;20058;-74
2022/07/16 09:59:56;;;;;;;0.00;0.00;;;23.40;1.00;;;;;;4977071;28;20046;-74
2022/07/16 10:02:23;;;;;;;0.00;0.00;;;23.10;1.00;;;;;;4996471;28;20089;-76
2022/07/16 10:04:56;;;;;;;16.15;1.13;;;22.10;1.00;;;;;;4992575;28;20050;-75
2022/07/16 10:07:22;;;;;;;0.10;0.10;;;22.20;1.00;;;;;;4993615;28;20053;-75
2022/07/16 10:09:47;;;;;;;0.43;0.38;;;22.20;1.00;;;;;;4993758;28;20050;-75
2022/07/16 10:12:16;;;;;;;0.73;0.55;;;22.50;1.00;;;;;;5007693;28;20049;-75
2022/07/16 10:14:48;;;;;;;0.38;0.17;;;21.70;1.00;;;;;;5033158;28;20041;-74
2022/07/16 10:17:42;;;;;;;0.00;0.00;;;21.30;1.00;;;;;;5032858;28;20052;-75
2022/07/16 10:20:17;;;;;;;0.20;0.10;;;21.20;2.70;;;;;;5029640;28;20096;-75
2022/07/16 10:22:44;;;;;;;0.75;0.30;;;21.70;1.00;;;;;;5028157;28;20084;-75
2022/07/16 10:25:17;;;;;;;0.00;0.00;;;21.60;1.00;;;;;;5013224;28;20385;-75
2022/07/16 10:27:44;;;;;;;0.45;0.25;;;21.70;1.00;;;;;;5013091;28;20125;-75
2022/07/16 10:30:26;;;;;;;0.10;0.10;;;22.10;1.00;;;;;;5012765;28;20488;-74
2022/07/16 10:33:02;;;;;;;0.00;0.00;;;22.60;1.00;;;;;;5014072;28;20042;-75
2022/07/16 10:35:34;;;;;;;0.10;0.10;;;22.70;1.00;;;;;;5013383;28;20108;-75
2022/07/16 10:38:16;;;;;;;0.25;0.22;;;23.40;1.00;;;;;;5013335;28;20056;-75
2022/07/16 10:40:45;;;;;;;0.45;0.17;;;23.70;1.00;;;;;;5012953;28;20046;-74
2022/07/16 10:43:17;;;;;;;0.00;0.00;;;24.40;1.00;;;;;;5014229;28;20042;-75
2022/07/16 10:45:55;;;;;;;0.20;0.13;;;23.20;1.00;;;;;;5012988;28;20042;-75
2022/07/16 10:48:22;;;;;;;0.00;0.00;;;22.90;1.00;;;;;;5012619;28;20037;-75
2022/07/16 10:51:11;;;;;;;0.43;0.20;;;22.30;1.00;;;;;;5012722;28;20050;-75
2022/07/16 10:53:56;;;;;;;0.22;0.20;;;23.20;1.00;;;;;;5022957;28;20052;-75
2022/07/16 10:56:44;;;;;;;0.00;0.00;;;24.90;1.00;;;;;;5032650;28;20057;-75
2022/07/16 10:59:11;;;;;;;0.00;0.00;;;24.20;1.00;;;;;;5032295;28;20057;-75
2022/07/16 11:01:39;;;;;;;1.20;0.80;;;23.30;1.00;;;;;;5030953;28;20042;-75
2022/07/16 11:04:06;;;;;;;4.38;0.70;;;22.90;1.00;;;;;;5018482;28;20042;-75
2022/07/16 11:06:32;;;;;;;0.85;0.57;;;23.70;1.00;;;;;;5012801;28;20048;-75
2022/07/16 11:09:04;;;;;;;0.00;0.00;;;23.90;1.00;;;;;;5013690;28;20168;-75
2022/07/16 11:11:34;;;;;;;0.00;0.00;;;23.50;1.00;;;;;;5031208;28;20049;-75
2022/07/16 11:14:00;;;;;;;0.35;0.13;;;22.90;1.00;;;;;;5019374;28;20046;-74
2022/07/16 11:16:27;;;;;;;0.98;0.47;;;22.70;1.00;;;;;;5012816;28;20046;-76
2022/07/16 11:18:53;;;;;;;0.00;0.00;;;23.40;1.00;;;;;;5013042;28;20049;-75
2022/07/16 11:21:18;;;;;;;0.00;0.00;;;23.70;1.00;;;;;;5012803;28;20042;-75
2022/07/16 11:23:49;;;;;;;0.00;0.00;;;23.90;1.00;;;;;;5022936;28;20072;-75
2022/07/16 11:26:15;;;;;;;1.15;0.73;;;24.20;1.00;;;;;;5032563;28;20053;-75
2022/07/16 11:28:51;;;;;;;2.47;0.90;;;23.50;1.00;;;;;;5032401;28;20111;-75
2022/07/16 11:31:42;;;;;;;0.00;0.00;;;23.10;1.00;;;;;;5032249;28;20045;-75
2022/07/16 11:34:11;;;;;;;0.25;0.20;;;23.70;1.00;;;;;;5036000;28;20522;-75
2022/07/16 11:36:42;;;;;;;0.00;0.00;;;25.40;1.00;;;;;;5036969;28;20460;-75
2022/07/16 11:39:12;;;;;;;0.10;0.10;;;26.00;1.00;;;;;;5036335;28;20064;-75
2022/07/16 11:41:48;;;;;;;0.43;0.28;;;26.00;1.00;;;;;;5036729;28;20041;-74
2022/07/16 11:44:36;;;;;;;0.98;0.20;;;25.90;1.00;;;;;;5021870;28;20452;-75
2022/07/16 11:47:05;;;;;;;0.10;0.10;;;24.60;1.00;;;;;;5016100;28;20096;-75
2022/07/16 11:49:33;;;;;;;0.00;0.00;;;23.70;1.00;;;;;;5015971;28;20077;-75
2022/07/16 11:52:03;;;;;;;0.30;0.28;;;23.30;1.00;;;;;;5015876;28;20543;-75
2022/07/16 11:54:33;;;;;;;0.63;0.50;;;24.40;1.00;;;;;;5031427;28;20081;-75
2022/07/16 11:56:59;;;;;;;0.00;0.00;;;23.80;1.00;;;;;;5035984;28;20091;-75
2022/07/16 11:59:31;;;;;;;0.03;0.03;;;23.70;1.00;;;;;;5035388;28;20049;-74
2022/07/16 12:02:02;;;;;;;0.00;0.00;;;23.90;1.00;;;;;;5035103;28;20100;-75
2022/07/16 12:04:35;;;;;;;0.00;0.00;;;24.10;1.00;;;;;;5020397;28;20527;-75
2022/07/16 12:07:02;;;;;;;0.00;0.00;;;24.30;1.00;;;;;;5016137;28;20030;-75
2022/07/16 12:09:30;;;;;;;0.08;0.05;;;25.00;1.00;;;;;;5015957;28;20125;-75
2022/07/16 12:11:59;;;;;;;0.00;0.00;;;26.10;1.00;;;;;;5015524;28;20089;-75
2022/07/16 12:15:07;;;;;;;1.25;0.40;;;25.60;1.00;;;;;;5029584;28;20116;-74
2022/07/16 12:17:33;;;;;;;0.00;0.00;;;24.60;1.00;;;;;;5032053;28;20053;-75
2022/07/16 12:20:14;;;;;;;1.95;0.55;;;24.20;1.00;;;;;;5035156;28;20447;-75
2022/07/16 12:22:46;;;;;;;1.63;0.50;;;24.60;1.00;;;;;;4995927;28;20452;-75
2022/07/16 12:25:27;;;;;;;0.00;0.00;;;24.90;1.00;;;;;;4995834;28;20045;-74
2022/07/16 12:28:10;;;;;;;0.85;0.20;;;24.60;1.00;;;;;;4995506;28;20124;-75
2022/07/16 12:30:35;;;;;;;2.38;0.52;;;24.10;1.00;;;;;;4997882;28;20057;-75
2022/07/16 12:33:03;;;;;;;0.15;0.10;;;24.50;1.00;;;;;;5017471;28;20050;-75
2022/07/16 12:35:43;;;;;;;0.95;0.43;;;25.60;1.00;;;;;;5035077;28;20053;-75
2022/07/16 12:38:43;;;;;;;0.00;0.00;;;26.20;1.00;;;;;;5035369;28;20097;-74
2022/07/16 12:41:13;;;;;;;2.17;0.70;;;26.80;1.00;;;;;;5035076;28;20132;-75
2022/07/16 12:43:40;;;;;;;0.28;0.20;;;26.70;1.00;;;;;;5026954;28;20053;-75
2022/07/16 12:46:07;;;;;;;0.00;0.00;;;25.20;1.00;;;;;;5015324;28;20045;-75
2022/07/16 12:48:44;;;;;;;0.10;0.05;;;23.90;1.00;;;;;;5015344;28;20069;-75
2022/07/16 12:51:12;;;;;;;0.38;0.30;;;23.00;1.00;;;;;;5015488;28;20038;-75
2022/07/16 12:53:38;;;;;;;0.00;0.00;;;24.10;1.00;;;;;;5020315;28;20139;-75
2022/07/16 12:58:48;;;;;;;0.15;0.08;;;25.60;1.00;;;;;;5034592;28;20057;-75
2022/07/16 13:01:21;;;;;;;1.10;0.75;;;26.30;1.00;;;;;;5034683;28;20087;-75
2022/07/16 13:03:48;;;;;;;0.00;0.00;;;25.60;1.00;;;;;;5024887;28;20477;-75